Time;durP1;ratioP1;P1;durP2;ratioP2;P2;SDS_P1;SDS_P2;PMS_P1;PMS_P2;Temp;Humidity;BMP_temperature;BMP_pressure;BME280_temperature;BME280_humidity;BME280_pressure;Samples;Min_cycle;Max_cycle;Signal;HPM_P1;HPM_P2
2022/04/18 00:00:00;;;;;;;27.30;13.53;;;4.00;99.90;;;;;;5069025;28;20198;-73
2022/04/18 00:02:27;;;;;;;25.03;14.23;;;4.00;99.90;;;;;;5053771;28;20662;-73
2022/04/18 00:04:54;;;;;;;28.73;15.03;;;3.90;99.90;;;;;;5071138;28;20222;-73
2022/04/18 00:07:21;;;;;;;24.20;14.50;;;3.90;99.90;;;;;;5073644;28;20198;-73
2022/04/18 00:09:48;;;;;;;30.70;16.67;;;4.10;99.90;;;;;;5065073;28;20203;-74
2022/04/18 00:12:15;;;;;;;34.23;17.53;;;4.20;99.90;;;;;;5066657;28;20208;-74
2022/04/18 00:14:41;;;;;;;36.47;20.20;;;4.20;99.90;;;;;;5070920;28;20202;-74
2022/04/18 00:17:10;;;;;;;40.23;20.33;;;4.20;99.90;;;;;;5069174;28;20198;-74
2022/04/18 00:19:37;;;;;;;41.17;20.97;;;4.30;99.90;;;;;;5071888;28;20554;-74
2022/04/18 00:22:05;;;;;;;41.30;20.10;;;4.30;99.90;;;;;;5073119;28;20202;-74
2022/04/18 00:24:33;;;;;;;37.80;21.47;;;4.20;99.90;;;;;;5063747;28;20206;-74
2022/04/18 00:27:00;;;;;;;42.93;22.60;;;4.40;99.90;;;;;;5068516;28;20229;-74
2022/04/18 00:29:27;;;;;;;39.03;22.63;;;4.10;99.90;;;;;;5068553;28;20206;-74
2022/04/18 00:31:54;;;;;;;43.73;22.50;;;4.00;99.90;;;;;;5071323;28;20576;-74
2022/04/18 00:34:22;;;;;;;42.27;22.80;;;3.90;99.90;;;;;;5072564;28;20292;-73
2022/04/18 00:36:49;;;;;;;45.87;23.37;;;3.80;99.90;;;;;;5066782;28;20195;-73
2022/04/18 00:39:16;;;;;;;46.13;24.63;;;3.80;99.90;;;;;;5059408;28;20637;-74
2022/04/18 00:41:43;;;;;;;49.67;25.10;;;3.80;99.90;;;;;;5069182;28;20206;-73
2022/04/18 00:44:10;;;;;;;48.30;26.03;;;3.90;99.90;;;;;;5070483;28;20194;-74
2022/04/18 00:46:37;;;;;;;48.53;25.47;;;4.10;99.90;;;;;;5071615;28;20585;-74
2022/04/18 00:49:04;;;;;;;47.13;24.57;;;3.90;99.90;;;;;;5071693;28;20202;-74
2022/04/18 00:51:32;;;;;;;46.93;22.67;;;4.00;99.90;;;;;;5070012;28;20194;-73
2022/04/18 00:53:59;;;;;;;38.87;22.47;;;3.90;99.90;;;;;;5058004;28;20213;-74
2022/04/18 00:56:27;;;;;;;33.00;18.67;;;4.10;99.90;;;;;;5061515;28;20210;-74
2022/04/18 00:58:55;;;;;;;35.03;17.97;;;4.00;99.90;;;;;;5069708;28;20249;-74
2022/04/18 01:01:23;;;;;;;33.63;19.00;;;3.90;99.90;;;;;;5061161;28;20203;-74
2022/04/18 01:03:51;;;;;;;36.47;20.57;;;3.60;99.90;;;;;;5071788;28;20226;-73
2022/04/18 01:06:17;;;;;;;30.97;17.93;;;3.40;99.90;;;;;;5069195;28;20227;-74
2022/04/18 01:08:48;;;;;;;31.43;17.03;;;3.40;99.90;;;;;;5069667;28;20661;-74
2022/04/18 01:11:16;;;;;;;29.53;17.30;;;3.30;99.90;;;;;;5068608;28;20581;-74
2022/04/18 01:13:44;;;;;;;32.17;18.53;;;3.60;99.90;;;;;;5067431;28;20199;-73
2022/04/18 01:16:12;;;;;;;33.37;18.37;;;3.60;99.90;;;;;;5060775;28;20240;-73
2022/04/18 01:18:39;;;;;;;33.03;17.67;;;3.60;99.90;;;;;;5070982;28;20298;-74
2022/04/18 01:21:08;;;;;;;31.37;18.70;;;3.60;99.90;;;;;;5070940;28;20199;-74
2022/04/18 01:23:35;;;;;;;30.50;17.43;;;3.70;99.90;;;;;;5069447;28;20209;-74
2022/04/18 01:29:05;;;;;;;32.60;16.90;;;3.50;99.90;;;;;;5065585;28;20205;-74
2022/04/18 01:31:34;;;;;;;31.57;17.60;;;3.40;99.90;;;;;;5071716;28;20323;-73
2022/04/18 01:34:02;;;;;;;29.17;16.50;;;3.40;99.90;;;;;;5045822;28;20215;-74
2022/04/18 01:36:30;;;;;;;28.60;16.73;;;3.30;99.90;;;;;;5037374;28;20200;-74
2022/04/18 01:38:57;;;;;;;28.20;16.00;;;3.20;99.90;;;;;;5045946;28;20199;-73
2022/04/18 01:41:24;;;;;;;31.60;16.90;;;3.30;99.90;;;;;;5049774;28;20203;-74
2022/04/18 01:43:51;;;;;;;29.43;16.40;;;3.20;99.90;;;;;;5047044;28;20191;-74
2022/04/18 01:46:19;;;;;;;33.10;16.47;;;3.20;99.90;;;;;;5050328;28;20336;-74
2022/04/18 01:48:50;;;;;;;29.97;17.23;;;3.30;99.90;;;;;;5050105;28;20493;-74
2022/04/18 01:51:17;;;;;;;29.73;15.93;;;3.10;99.90;;;;;;5050263;28;20210;-74
2022/04/18 01:53:45;;;;;;;30.27;17.43;;;3.30;99.90;;;;;;5051017;28;20209;-74
2022/04/18 01:56:12;;;;;;;29.83;17.73;;;3.20;99.90;;;;;;5042462;28;20638;-74
2022/04/18 01:58:39;;;;;;;28.93;15.20;;;3.20;99.90;;;;;;5041017;28;20217;-74
2022/04/18 02:01:06;;;;;;;27.37;15.93;;;3.20;99.90;;;;;;5047917;28;20661;-74
2022/04/18 02:03:33;;;;;;;27.37;16.17;;;3.20;99.90;;;;;;5046360;28;20211;-73
2022/04/18 02:06:00;;;;;;;30.67;17.00;;;3.10;99.90;;;;;;5050639;28;20219;-74
2022/04/18 02:08:27;;;;;;;25.93;15.77;;;3.20;99.90;;;;;;5051067;28;20207;-73
2022/04/18 02:10:55;;;;;;;28.50;17.00;;;3.20;99.90;;;;;;5045934;28;20206;-74
2022/04/18 02:13:22;;;;;;;30.10;16.13;;;3.00;99.90;;;;;;5046545;28;20210;-74
2022/04/18 02:15:49;;;;;;;27.30;15.50;;;2.90;99.90;;;;;;5044355;28;20203;-74
2022/04/18 02:18:16;;;;;;;27.20;15.63;;;2.80;99.90;;;;;;5047757;28;20209;-74
2022/04/18 02:20:43;;;;;;;27.87;15.23;;;2.80;99.90;;;;;;5043724;28;20198;-74
2022/04/18 02:23:10;;;;;;;28.03;15.37;;;2.80;99.90;;;;;;5050240;28;20555;-74
2022/04/18 02:25:37;;;;;;;24.23;15.03;;;2.90;99.90;;;;;;5039295;28;20540;-74
2022/04/18 02:28:06;;;;;;;26.63;15.27;;;2.90;99.90;;;;;;5034924;28;20210;-74
2022/04/18 02:30:32;;;;;;;28.30;15.23;;;3.00;99.90;;;;;;5048952;28;20195;-73
2022/04/18 02:32:59;;;;;;;26.73;14.70;;;2.60;99.90;;;;;;5062924;28;20214;-73
2022/04/18 02:35:27;;;;;;;27.37;15.10;;;2.60;99.90;;;;;;5067118;28;20201;-73
2022/04/18 02:37:54;;;;;;;27.63;14.40;;;2.60;99.90;;;;;;5071360;28;20633;-74
2022/04/18 02:40:22;;;;;;;26.47;15.60;;;2.60;99.90;;;;;;5068846;28;20209;-73
2022/04/18 02:42:50;;;;;;;26.07;15.80;;;2.50;99.90;;;;;;5070436;28;20210;-74
2022/04/18 02:45:19;;;;;;;25.63;15.33;;;2.30;99.90;;;;;;5071230;28;20197;-74
2022/04/18 02:47:46;;;;;;;27.47;17.40;;;2.40;99.90;;;;;;5071118;28;20560;-74
2022/04/18 02:50:13;;;;;;;27.60;15.80;;;2.50;99.90;;;;;;5069408;28;20553;-73
2022/04/18 02:52:40;;;;;;;27.30;14.63;;;2.60;99.90;;;;;;5070539;28;20561;-75
2022/04/18 02:55:11;;;;;;;27.57;15.80;;;2.60;99.90;;;;;;5063298;28;20192;-74
2022/04/18 02:57:38;;;;;;;26.03;14.63;;;2.70;99.90;;;;;;5062070;28;20202;-73
2022/04/18 03:00:07;;;;;;;28.23;15.47;;;2.60;99.90;;;;;;5070550;28;20203;-74
2022/04/18 03:02:35;;;;;;;24.23;14.70;;;2.60;99.90;;;;;;5069429;28;20194;-74
2022/04/18 03:05:02;;;;;;;22.97;13.73;;;2.40;99.90;;;;;;5067526;28;20202;-74
2022/04/18 03:07:29;;;;;;;23.97;13.73;;;2.30;99.90;;;;;;5057108;28;20219;-73
2022/04/18 03:09:55;;;;;;;27.73;15.07;;;2.30;99.90;;;;;;5066285;28;20683;-74
2022/04/18 03:12:23;;;;;;;25.13;14.30;;;2.40;99.90;;;;;;5065121;28;20200;-74
2022/04/18 03:14:50;;;;;;;24.80;14.10;;;2.50;99.90;;;;;;5059250;28;20194;-73
2022/04/18 03:17:17;;;;;;;29.47;14.47;;;2.30;99.90;;;;;;5071317;28;20202;-74
2022/04/18 03:19:45;;;;;;;27.80;15.03;;;2.10;99.90;;;;;;5067196;28;20206;-74
2022/04/18 03:22:12;;;;;;;26.73;14.60;;;2.20;99.90;;;;;;5073675;28;20201;-74
2022/04/18 03:24:38;;;;;;;25.70;14.20;;;2.10;99.90;;;;;;5065387;28;20203;-74
2022/04/18 03:27:06;;;;;;;22.97;14.13;;;2.00;99.90;;;;;;5068767;28;20245;-74
2022/04/18 03:29:33;;;;;;;27.30;14.77;;;1.90;99.90;;;;;;5062662;28;20198;-73
2022/04/18 03:32:00;;;;;;;28.83;15.07;;;2.10;99.90;;;;;;5060761;28;20211;-74
2022/04/18 03:34:27;;;;;;;24.33;14.17;;;2.20;99.90;;;;;;5062491;28;20211;-74
2022/04/18 03:42:30;;;;;;;26.30;15.40;;;2.20;99.90;;;;;;5063618;28;20335;-72
2022/04/18 03:44:59;;;;;;;25.07;14.87;;;2.20;99.90;;;;;;5059664;28;20230;-73
2022/04/18 03:47:26;;;;;;;26.00;14.80;;;2.30;99.90;;;;;;5065536;28;20268;-73
2022/04/18 03:49:53;;;;;;;25.87;15.03;;;2.40;99.90;;;;;;5067198;28;20194;-73
2022/04/18 03:52:23;;;;;;;24.97;13.87;;;2.10;99.90;;;;;;5067921;28;20202;-73
2022/04/18 03:54:50;;;;;;;19.47;12.17;;;2.00;99.90;;;;;;5067496;28;20223;-73
2022/04/18 03:57:17;;;;;;;22.27;12.93;;;1.80;99.90;;;;;;5072939;28;20186;-73
2022/04/18 03:59:44;;;;;;;22.60;13.13;;;2.00;99.90;;;;;;5071977;28;20202;-73
2022/04/18 04:02:11;;;;;;;21.57;13.60;;;2.00;99.90;;;;;;5073007;28;20201;-73
2022/04/18 04:04:38;;;;;;;24.57;13.60;;;2.00;99.90;;;;;;5062608;28;20195;-73
2022/04/18 04:07:06;;;;;;;24.20;14.93;;;2.00;99.90;;;;;;5064101;28;20214;-73
2022/04/18 04:09:36;;;;;;;26.97;14.53;;;2.10;99.90;;;;;;5069360;28;20264;-73
2022/04/18 04:12:03;;;;;;;21.90;14.33;;;2.30;99.90;;;;;;5072889;28;20195;-73
2022/04/18 04:14:31;;;;;;;24.63;13.60;;;2.30;99.90;;;;;;5072794;28;20198;-73
2022/04/18 04:16:58;;;;;;;24.57;13.70;;;2.30;99.90;;;;;;5057488;28;20535;-73
2022/04/18 04:19:25;;;;;;;23.63;13.37;;;2.10;99.90;;;;;;5052717;28;20213;-73
2022/04/18 04:21:52;;;;;;;21.93;13.60;;;1.80;99.90;;;;;;5061266;28;20194;-73
2022/04/18 04:24:20;;;;;;;26.07;13.50;;;1.90;99.90;;;;;;5072396;28;20213;-73
2022/04/18 04:26:48;;;;;;;22.47;13.23;;;2.00;99.90;;;;;;5069916;28;20210;-74
2022/04/18 04:29:15;;;;;;;21.77;13.53;;;2.20;99.90;;;;;;5072683;28;20213;-73
2022/04/18 04:31:42;;;;;;;19.77;12.70;;;2.40;99.90;;;;;;5072410;28;20206;-73
2022/04/18 04:34:10;;;;;;;22.47;13.57;;;2.50;99.90;;;;;;5070230;28;20202;-73
2022/04/18 04:36:37;;;;;;;22.63;13.00;;;3.00;99.90;;;;;;5069014;28;20658;-73
2022/04/18 04:39:04;;;;;;;23.07;13.07;;;3.50;99.90;;;;;;5070091;28;20194;-73
2022/04/18 04:41:31;;;;;;;25.27;14.50;;;3.70;99.90;;;;;;5071108;28;20230;-73
2022/04/18 04:43:59;;;;;;;22.73;12.73;;;3.70;99.90;;;;;;5069526;28;20191;-73
2022/04/18 04:46:27;;;;;;;20.40;12.17;;;4.00;99.90;;;;;;5066235;28;20225;-73
2022/04/18 04:48:54;;;;;;;20.63;12.73;;;4.40;99.90;;;;;;5068760;28;20205;-73
2022/04/18 04:51:21;;;;;;;20.43;12.23;;;4.30;99.90;;;;;;5066171;28;20198;-73
2022/04/18 04:53:48;;;;;;;20.90;12.83;;;4.40;99.90;;;;;;5070035;28;20457;-73
2022/04/18 04:56:16;;;;;;;21.60;13.03;;;5.00;99.90;;;;;;5072307;28;20296;-73
2022/04/18 04:58:43;;;;;;;20.57;13.20;;;5.20;99.90;;;;;;5070450;28;20264;-73
2022/04/18 05:01:11;;;;;;;20.17;12.27;;;6.50;99.90;;;;;;5069272;28;20198;-73
2022/04/18 05:03:38;;;;;;;19.07;11.30;;;7.00;99.90;;;;;;5070435;28;20203;-73
2022/04/18 05:06:05;;;;;;;19.67;11.77;;;7.00;99.90;;;;;;5061980;28;20199;-73
2022/04/18 05:08:32;;;;;;;19.50;12.03;;;6.70;99.90;;;;;;5067845;28;20242;-73
2022/04/18 05:11:01;;;;;;;18.27;11.67;;;7.20;99.90;;;;;;5068649;28;20195;-73
2022/04/18 05:13:28;;;;;;;18.87;11.83;;;7.00;97.20;;;;;;5053036;28;20191;-73
2022/04/18 05:15:55;;;;;;;19.20;11.80;;;7.20;97.10;;;;;;5062390;28;20194;-72
2022/04/18 05:18:23;;;;;;;18.47;11.43;;;7.20;99.90;;;;;;5059061;28;20195;-72
2022/04/18 05:20:50;;;;;;;18.60;11.47;;;7.00;99.90;;;;;;5059949;28;20225;-72
2022/04/18 05:23:17;;;;;;;15.90;10.80;;;6.70;99.90;;;;;;5059532;28;20198;-72
2022/04/18 05:25:44;;;;;;;15.90;11.27;;;7.20;99.90;;;;;;5057730;28;20202;-72
2022/04/18 05:28:11;;;;;;;17.40;11.43;;;8.00;97.80;;;;;;5066270;28;20215;-72
2022/04/18 05:30:39;;;;;;;15.60;10.70;;;7.10;99.90;;;;;;5059570;28;20206;-72
2022/04/18 05:33:07;;;;;;;18.63;11.27;;;6.50;99.90;;;;;;5070713;28;20224;-72
2022/04/18 05:35:35;;;;;;;17.10;10.90;;;5.70;99.90;;;;;;5061691;28;20199;-72
2022/04/18 05:38:02;;;;;;;17.50;11.43;;;6.10;99.90;;;;;;5060884;28;20236;-72
2022/04/18 05:40:28;;;;;;;18.23;11.30;;;6.30;99.90;;;;;;5062887;28;20210;-72
2022/04/18 05:42:55;;;;;;;21.40;12.37;;;7.50;99.90;;;;;;5060949;28;20198;-72
2022/04/18 05:45:22;;;;;;;16.83;10.57;;;7.70;99.90;;;;;;5065271;28;20205;-72
2022/04/18 05:47:49;;;;;;;19.03;11.10;;;6.80;99.90;;;;;;5061354;28;20673;-72
2022/04/18 05:50:16;;;;;;;19.50;11.37;;;6.50;99.90;;;;;;5067449;28;20202;-72
2022/04/18 05:52:44;;;;;;;17.70;11.13;;;6.30;99.90;;;;;;5066972;28;20199;-72
2022/04/18 05:55:11;;;;;;;19.37;11.13;;;6.30;99.90;;;;;;5067104;28;20567;-72
2022/04/18 05:57:38;;;;;;;17.87;10.87;;;7.70;99.90;;;;;;5067429;28;20205;-72
2022/04/18 06:00:06;;;;;;;19.47;11.73;;;8.40;99.90;;;;;;5057681;28;20561;-72
2022/04/18 06:02:33;;;;;;;16.87;10.83;;;8.60;99.80;;;;;;5067631;28;20203;-72
2022/04/18 06:05:00;;;;;;;18.87;11.53;;;7.70;99.90;;;;;;5063784;28;20654;-72
2022/04/18 06:07:26;;;;;;;19.77;11.27;;;8.70;99.90;;;;;;5066531;28;20226;-72
2022/04/18 06:09:55;;;;;;;19.23;11.83;;;8.80;93.60;;;;;;5061126;28;20195;-72
2022/04/18 06:12:22;;;;;;;18.53;11.60;;;7.70;98.20;;;;;;5059365;28;20199;-72
2022/04/18 06:14:49;;;;;;;16.40;9.73;;;7.60;99.90;;;;;;5067813;28;20221;-72
2022/04/18 06:17:15;;;;;;;15.97;10.40;;;7.70;99.90;;;;;;5066316;28;20208;-72
2022/04/18 06:19:42;;;;;;;15.53;10.37;;;8.50;99.90;;;;;;5067841;28;20203;-72
2022/04/18 06:22:09;;;;;;;16.73;10.00;;;10.00;94.40;;;;;;5066453;28;20221;-72
2022/04/18 06:24:36;;;;;;;16.07;9.40;;;10.40;92.70;;;;;;5066868;28;20206;-72
2022/04/18 06:27:05;;;;;;;13.70;8.73;;;11.70;69.00;;;;;;5063858;28;20226;-73
2022/04/18 06:29:32;;;;;;;17.33;9.37;;;12.20;55.30;;;;;;5066296;28;20202;-73
2022/04/18 06:31:59;;;;;;;15.13;8.83;;;13.20;53.50;;;;;;5059080;28;20688;-73
2022/04/18 06:34:26;;;;;;;13.70;8.07;;;13.30;47.70;;;;;;5067336;28;20208;-74
2022/04/18 06:36:53;;;;;;;12.77;8.23;;;13.60;40.60;;;;;;5067965;28;20701;-74
2022/04/18 06:39:20;;;;;;;14.07;8.40;;;11.40;39.70;;;;;;5068986;28;20712;-73
2022/04/18 06:41:47;;;;;;;14.13;8.60;;;11.10;46.60;;;;;;5068675;28;20690;-73
2022/04/18 06:44:15;;;;;;;13.93;8.60;;;10.70;48.40;;;;;;5069439;28;20234;-73
2022/04/18 06:46:42;;;;;;;13.03;8.50;;;11.90;50.70;;;;;;5069493;28;20681;-73
2022/04/18 06:49:08;;;;;;;14.97;9.40;;;12.00;49.40;;;;;;5070780;28;20569;-72
2022/04/18 06:51:35;;;;;;;13.77;9.30;;;11.70;53.30;;;;;;5067828;28;20202;-72
2022/04/18 06:54:02;;;;;;;16.77;10.07;;;12.00;52.80;;;;;;5070201;28;20198;-72
2022/04/18 06:59:14;;;;;;;15.90;10.47;;;10.90;61.00;;;;;;5068256;28;20275;-72
2022/04/18 07:01:41;;;;;;;16.97;11.37;;;10.90;60.60;;;;;;5069407;28;20657;-73
2022/04/18 07:04:08;;;;;;;17.83;10.87;;;10.40;64.10;;;;;;5062816;28;20206;-72
2022/04/18 07:06:35;;;;;;;15.50;10.10;;;10.70;64.30;;;;;;5066232;28;20294;-73
2022/04/18 07:09:03;;;;;;;17.13;10.63;;;11.20;58.90;;;;;;5064334;28;20218;-73
2022/04/18 07:11:29;;;;;;;15.80;10.57;;;10.50;58.30;;;;;;5071879;28;20205;-72
2022/04/18 07:13:56;;;;;;;19.67;12.10;;;10.10;71.50;;;;;;5068951;28;20676;-72
2022/04/18 07:16:24;;;;;;;18.40;11.07;;;11.30;62.80;;;;;;5069792;28;20388;-72
2022/04/18 07:18:51;;;;;;;17.07;11.57;;;12.00;56.00;;;;;;5069400;28;20266;-72
2022/04/18 07:21:20;;;;;;;19.73;12.40;;;11.40;57.80;;;;;;5070920;28;20206;-72
2022/04/18 07:23:47;;;;;;;17.77;10.77;;;10.80;72.20;;;;;;5066348;28;20210;-72
2022/04/18 07:26:14;;;;;;;18.70;11.43;;;10.20;68.50;;;;;;5070557;28;20205;-72
2022/04/18 07:28:40;;;;;;;18.27;11.93;;;10.20;81.80;;;;;;5071767;28;20578;-72
2022/04/18 07:31:07;;;;;;;18.67;11.73;;;10.00;83.70;;;;;;5058975;28;20199;-72
2022/04/18 07:33:36;;;;;;;18.63;11.97;;;10.00;90.10;;;;;;5072474;28;20202;-72
2022/04/18 07:36:03;;;;;;;19.43;13.00;;;10.40;91.10;;;;;;5073811;28;20208;-72
2022/04/18 07:41:14;;;;;;;18.00;11.80;;;11.30;82.00;;;;;;5068862;28;20574;-72
2022/04/18 07:43:41;;;;;;;19.03;12.70;;;11.50;85.80;;;;;;5065579;28;20202;-72
2022/04/18 07:46:08;;;;;;;20.37;13.33;;;10.90;85.10;;;;;;5067128;28;20203;-73
2022/04/18 07:48:36;;;;;;;17.63;11.90;;;11.10;90.40;;;;;;5073027;28;20580;-72
2022/04/18 07:53:48;;;;;;;16.97;12.30;;;10.80;94.20;;;;;;5064377;28;20328;-72
2022/04/18 07:56:15;;;;;;;17.67;11.93;;;11.00;86.80;;;;;;5063416;28;20560;-72
2022/04/18 07:58:42;;;;;;;18.63;11.73;;;11.10;91.20;;;;;;5067826;28;20204;-72
2022/04/18 08:01:09;;;;;;;19.70;11.53;;;11.20;89.20;;;;;;5062227;28;20249;-72
2022/04/18 08:03:38;;;;;;;17.73;11.97;;;11.50;88.40;;;;;;5063784;28;20668;-72
2022/04/18 08:06:05;;;;;;;17.90;12.33;;;11.40;81.80;;;;;;5072952;28;20199;-72
2022/04/18 08:08:32;;;;;;;17.90;11.53;;;11.40;86.20;;;;;;5071261;28;20214;-72
2022/04/18 08:10:59;;;;;;;16.90;11.47;;;11.50;76.00;;;;;;5072601;28;20207;-72
2022/04/18 08:13:26;;;;;;;16.40;11.50;;;11.80;74.50;;;;;;5072011;28;20645;-72
2022/04/18 08:15:53;;;;;;;16.93;10.87;;;11.90;71.80;;;;;;5060236;28;20199;-73
2022/04/18 08:18:20;;;;;;;16.13;11.20;;;11.90;70.50;;;;;;5067634;28;20553;-72
2022/04/18 08:20:48;;;;;;;18.23;11.13;;;12.20;72.20;;;;;;5053061;28;20210;-72
2022/04/18 08:23:16;;;;;;;19.00;11.60;;;12.20;76.50;;;;;;5067980;28;20559;-72
2022/04/18 08:25:43;;;;;;;15.13;10.13;;;12.10;70.10;;;;;;5063724;28;20291;-73
2022/04/18 08:28:09;;;;;;;17.97;10.77;;;12.20;67.50;;;;;;5065856;28;20581;-73
2022/04/18 08:30:36;;;;;;;15.80;8.87;;;12.10;64.30;;;;;;5067444;28;20729;-73
2022/04/18 08:33:03;;;;;;;13.00;8.90;;;12.30;59.40;;;;;;5069930;28;20207;-73
2022/04/18 08:35:32;;;;;;;14.67;8.47;;;12.50;57.60;;;;;;5069081;28;20572;-72
2022/04/18 08:38:00;;;;;;;14.40;7.97;;;12.70;54.40;;;;;;5064647;28;20659;-72
2022/04/18 08:40:27;;;;;;;13.07;8.27;;;13.00;50.20;;;;;;5062191;28;20203;-73
2022/04/18 08:42:55;;;;;;;11.90;7.67;;;13.10;54.10;;;;;;5069300;28;20202;-72
2022/04/18 08:45:24;;;;;;;12.47;7.80;;;12.90;47.70;;;;;;5064417;28;20202;-72
2022/04/18 08:53:27;;;;;;;12.60;7.93;;;13.10;56.10;;;;;;5067651;28;20725;-72
2022/04/18 08:55:54;;;;;;;14.67;8.93;;;13.40;49.60;;;;;;5069341;28;20203;-72
2022/04/18 08:58:22;;;;;;;14.67;8.80;;;13.80;56.10;;;;;;5063137;28;20198;-72
2022/04/18 09:00:48;;;;;;;13.40;7.70;;;13.50;58.10;;;;;;5068240;28;20210;-72
2022/04/18 09:03:15;;;;;;;15.60;9.13;;;13.80;52.20;;;;;;5061485;28;20208;-72
2022/04/18 09:05:42;;;;;;;12.03;8.27;;;14.10;51.00;;;;;;5069156;28;20203;-72
2022/04/18 09:08:10;;;;;;;14.57;9.20;;;13.90;48.30;;;;;;5061081;28;20227;-72
2022/04/18 09:10:40;;;;;;;15.67;10.17;;;14.40;55.90;;;;;;5063277;28;20218;-72
2022/04/18 09:13:09;;;;;;;15.77;9.30;;;14.50;45.80;;;;;;5065126;28;20374;-72
2022/04/18 09:15:38;;;;;;;14.27;9.67;;;14.60;49.20;;;;;;5069412;28;20564;-72
2022/04/18 09:18:12;;;;;;;16.23;8.93;;;14.60;46.60;;;;;;5063164;28;20202;-72
2022/04/18 09:20:44;;;;;;;14.90;9.13;;;15.10;47.80;;;;;;5064295;28;20653;-72
2022/04/18 09:23:22;;;;;;;13.73;7.87;;;15.70;40.90;;;;;;5069811;28;20256;-72
2022/04/18 09:25:55;;;;;;;14.13;7.83;;;15.10;36.10;;;;;;5063778;28;20252;-72
2022/04/18 09:28:28;;;;;;;12.50;7.07;;;15.40;36.40;;;;;;5062773;28;20223;-72
2022/04/18 09:31:03;;;;;;;12.03;6.97;;;15.30;33.20;;;;;;5069063;28;20208;-72
2022/04/18 09:33:33;;;;;;;12.73;7.10;;;15.10;25.40;;;;;;5066298;28;20213;-72
2022/04/18 09:36:11;;;;;;;14.50;7.57;;;15.30;27.30;;;;;;5063378;28;20203;-72
2022/04/18 09:38:40;;;;;;;15.27;8.07;;;15.60;25.20;;;;;;5068177;28;20217;-72
2022/04/18 09:41:12;;;;;;;10.33;6.40;;;15.30;23.60;;;;;;5066257;28;20205;-72
2022/04/18 09:43:40;;;;;;;9.07;5.70;;;15.40;26.80;;;;;;5069672;28;20305;-72
2022/04/18 09:46:08;;;;;;;11.77;6.70;;;15.50;18.00;;;;;;5072421;28;20213;-72
2022/04/18 09:48:36;;;;;;;11.13;6.07;;;15.50;22.60;;;;;;5071254;28;20226;-72
2022/04/18 09:51:11;;;;;;;8.53;5.57;;;15.40;21.60;;;;;;5070519;28;20684;-72
2022/04/18 09:53:39;;;;;;;7.20;4.28;;;15.90;16.00;;;;;;5071903;28;20216;-72
2022/04/18 09:56:08;;;;;;;11.50;6.70;;;15.50;11.00;;;;;;5071687;28;20259;-72
2022/04/18 09:58:36;;;;;;;7.80;5.27;;;15.60;15.30;;;;;;5066489;28;20206;-72
2022/04/18 10:01:05;;;;;;;5.40;3.80;;;15.40;15.30;;;;;;5069751;28;20209;-72
2022/04/18 10:03:34;;;;;;;8.33;4.80;;;15.40;7.80;;;;;;5072134;28;20661;-72
2022/04/18 10:06:01;;;;;;;9.83;5.53;;;15.60;8.60;;;;;;5071289;28;20204;-72
2022/04/18 10:08:29;;;;;;;9.17;5.70;;;15.90;13.70;;;;;;5072284;28;20567;-72
2022/04/18 10:10:58;;;;;;;9.53;5.40;;;15.70;16.30;;;;;;5068885;28;20198;-72
2022/04/18 10:13:27;;;;;;;9.53;5.60;;;15.60;13.00;;;;;;5065110;28;20868;-72
2022/04/18 10:15:54;;;;;;;8.20;5.40;;;15.80;12.50;;;;;;5066166;28;20191;-72
2022/04/18 10:18:23;;;;;;;7.37;4.33;;;15.60;13.70;;;;;;5064848;28;20200;-72
2022/04/18 10:21:12;;;;;;;5.30;4.27;;;15.60;8.70;;;;;;5075056;28;20214;-72
2022/04/18 10:24:20;;;;;;;5.70;3.97;;;16.00;6.10;;;;;;5070505;28;20203;-72
2022/04/18 10:27:24;;;;;;;6.27;4.67;;;15.70;6.70;;;;;;4974755;28;20250;-72
2022/04/18 10:29:55;;;;;;;7.53;5.07;;;15.60;3.00;;;;;;5070457;28;20641;-72
2022/04/18 10:32:25;;;;;;;8.48;5.20;;;15.80;9.70;;;;;;5070949;28;20216;-72
2022/04/18 10:34:53;;;;;;;8.67;5.90;;;15.70;9.30;;;;;;5063678;28;20214;-72
2022/04/18 10:37:24;;;;;;;7.20;4.80;;;15.90;6.20;;;;;;5073165;28;20233;-72
2022/04/18 10:39:58;;;;;;;6.43;4.30;;;15.60;7.50;;;;;;5069808;28;20206;-72
2022/04/18 10:42:30;;;;;;;6.80;4.67;;;15.60;7.00;;;;;;5075656;28;20206;-72
2022/04/18 10:45:09;;;;;;;5.40;3.67;;;15.80;3.40;;;;;;5069368;28;20202;-72
2022/04/18 10:48:02;;;;;;;8.13;3.83;;;15.70;3.70;;;;;;5067590;28;20206;-72
2022/04/18 10:50:33;;;;;;;7.13;4.80;;;15.80;1.00;;;;;;5063600;28;20203;-72
2022/04/18 10:53:11;;;;;;;5.25;4.20;;;16.10;3.80;;;;;;5070532;28;20206;-72
2022/04/18 10:55:39;;;;;;;7.15;3.97;;;15.90;1.00;;;;;;5072059;28;20631;-72
2022/04/18 10:58:11;;;;;;;6.25;3.88;;;15.70;1.00;;;;;;5073924;28;20653;-72
2022/04/18 11:00:52;;;;;;;4.32;2.70;;;16.20;1.00;;;;;;5069259;28;20207;-72
2022/04/18 11:03:53;;;;;;;5.93;4.18;;;16.30;1.00;;;;;;5069256;28;20232;-72
2022/04/18 11:06:49;;;;;;;5.88;4.18;;;15.80;1.00;;;;;;5067215;28;20607;-73
2022/04/18 11:09:19;;;;;;;5.43;4.13;;;15.80;1.00;;;;;;5073088;28;20301;-72
2022/04/18 11:12:06;;;;;;;6.38;4.35;;;15.80;1.00;;;;;;5071802;28;20285;-72
2022/04/18 11:14:47;;;;;;;7.53;4.83;;;15.60;1.00;;;;;;5072671;28;20297;-72
2022/04/18 11:17:26;;;;;;;7.20;4.73;;;16.20;1.00;;;;;;5072034;28;20206;-72
2022/04/18 11:19:53;;;;;;;5.97;4.10;;;15.90;1.00;;;;;;5070157;28;20237;-72
2022/04/18 11:22:21;;;;;;;6.22;4.22;;;16.40;2.30;;;;;;5072294;28;20202;-72
2022/04/18 11:25:02;;;;;;;7.57;5.07;;;16.10;1.80;;;;;;5070647;28;20696;-72
2022/04/18 11:27:34;;;;;;;5.97;4.47;;;16.40;3.50;;;;;;5067884;28;20351;-72
2022/04/18 11:30:04;;;;;;;8.55;5.25;;;16.40;1.00;;;;;;5067710;28;20559;-72
2022/04/18 11:32:35;;;;;;;6.40;4.35;;;16.40;1.00;;;;;;5060872;28;20214;-72
2022/04/18 11:35:05;;;;;;;6.53;4.97;;;16.20;1.00;;;;;;5054023;28;20206;-72
2022/04/18 11:37:34;;;;;;;5.43;4.07;;;16.20;1.00;;;;;;5053753;28;20634;-72
2022/04/18 11:40:02;;;;;;;8.10;4.78;;;16.40;1.00;;;;;;5070940;28;20321;-72
2022/04/18 11:42:31;;;;;;;10.50;5.70;;;16.30;1.00;;;;;;5073869;28;20657;-72
2022/04/18 11:44:59;;;;;;;6.97;5.25;;;15.70;1.00;;;;;;5072089;28;20567;-72
2022/04/18 11:47:28;;;;;;;6.07;4.75;;;15.80;1.00;;;;;;5069734;28;20584;-72
2022/04/18 11:49:58;;;;;;;6.57;5.30;;;16.20;1.00;;;;;;5068101;28;20221;-72
2022/04/18 11:52:27;;;;;;;8.63;5.32;;;16.30;1.00;;;;;;5065287;28;20213;-72
2022/04/18 11:54:56;;;;;;;7.27;4.93;;;16.70;1.00;;;;;;5061385;28;20297;-72
2022/04/18 11:57:22;;;;;;;7.75;5.45;;;16.20;1.00;;;;;;5067620;28;20198;-72
2022/04/18 11:59:49;;;;;;;8.23;5.40;;;16.40;1.00;;;;;;5060878;28;20573;-72
2022/04/18 12:07:48;;;;;;;6.45;4.90;;;16.50;1.00;;;;;;5073177;28;20197;-72
2022/04/18 12:10:24;;;;;;;6.53;5.57;;;16.30;1.00;;;;;;5067624;28;20223;-73
2022/04/18 12:12:51;;;;;;;10.32;6.35;;;16.50;1.00;;;;;;5053851;28;20204;-72
2022/04/18 12:15:22;;;;;;;8.02;6.10;;;16.10;1.00;;;;;;5053718;28;20203;-72
2022/04/18 12:17:49;;;;;;;8.52;5.63;;;16.10;1.00;;;;;;5066478;28;20203;-72
2022/04/18 12:20:22;;;;;;;7.45;6.18;;;16.20;1.00;;;;;;5065703;28;20249;-71
2022/04/18 12:22:51;;;;;;;6.55;5.78;;;16.10;1.00;;;;;;5062795;28;20195;-72
2022/04/18 12:25:22;;;;;;;8.32;6.22;;;16.10;1.00;;;;;;5061304;28;20206;-72
2022/04/18 12:27:49;;;;;;;8.05;6.05;;;16.20;1.00;;;;;;5072247;28;20246;-72
2022/04/18 12:30:17;;;;;;;9.00;6.43;;;16.30;1.00;;;;;;5067848;28;20228;-72
2022/04/18 12:32:47;;;;;;;7.25;5.68;;;16.10;1.00;;;;;;5071432;28;20207;-72
2022/04/18 12:35:15;;;;;;;6.95;6.05;;;16.40;1.00;;;;;;5071722;28;20293;-71
2022/04/18 12:37:48;;;;;;;7.95;6.93;;;16.50;1.00;;;;;;5070708;28;20272;-72
2022/04/18 12:40:16;;;;;;;8.25;6.93;;;16.90;1.00;;;;;;5069430;28;20575;-72
2022/04/18 12:42:50;;;;;;;9.23;7.40;;;16.80;1.00;;;;;;5064359;28;20203;-72
2022/04/18 12:45:17;;;;;;;9.85;7.88;;;16.10;1.00;;;;;;5071891;28;20203;-72
2022/04/18 12:47:44;;;;;;;9.43;7.65;;;16.30;1.00;;;;;;5072421;28;20205;-72
2022/04/18 12:50:13;;;;;;;10.00;7.85;;;16.50;1.00;;;;;;5066025;28;20581;-72
2022/04/18 12:52:50;;;;;;;10.43;7.43;;;16.20;1.00;;;;;;5072940;28;20202;-72
2022/04/18 12:55:26;;;;;;;9.70;7.57;;;16.20;1.00;;;;;;5072218;28;20228;-72
2022/04/18 12:57:53;;;;;;;10.68;7.65;;;16.40;1.00;;;;;;5072809;28;20660;-72
2022/04/18 13:00:20;;;;;;;7.80;7.00;;;16.30;1.00;;;;;;5071975;28;20225;-72
2022/04/18 13:02:58;;;;;;;8.73;7.68;;;16.20;1.00;;;;;;5070780;28;20206;-72
2022/04/18 13:05:26;;;;;;;8.10;7.30;;;16.50;1.00;;;;;;5062508;28;20537;-72
2022/04/18 13:07:57;;;;;;;10.63;7.80;;;16.30;1.00;;;;;;5061224;28;20199;-72
2022/04/18 13:10:28;;;;;;;10.30;8.32;;;16.80;1.00;;;;;;5064696;28;20222;-72
2022/04/18 13:13:08;;;;;;;9.52;7.75;;;16.50;1.00;;;;;;5065469;28;20668;-72
2022/04/18 13:15:35;;;;;;;8.98;7.95;;;16.40;1.00;;;;;;5061481;28;20564;-74